createdAt,value
2022-10-17T00:00:56.383Z,11.68
2022-10-17T00:03:23.252Z,11.68
2022-10-17T00:05:50.703Z,12.45
2022-10-17T00:08:19.598Z,11.82
2022-10-17T00:10:57.781Z,12.10
2022-10-17T00:13:26.098Z,12.32
2022-10-17T00:15:53.582Z,12.77
2022-10-17T00:18:20.649Z,12.00
2022-10-17T00:20:47.572Z,11.75
2022-10-17T00:23:14.444Z,11.35
2022-10-17T00:25:41.386Z,11.93
2022-10-17T00:28:13.158Z,11.55
2022-10-17T00:30:40.305Z,11.35
2022-10-17T00:33:07.856Z,11.32
2022-10-17T00:35:34.737Z,11.75
2022-10-17T00:38:01.629Z,12.27
2022-10-17T00:40:28.568Z,11.38
2022-10-17T00:42:55.527Z,11.93
2022-10-17T00:45:28.449Z,11.32
2022-10-17T00:48:04.075Z,13.15
2022-10-17T00:50:31.994Z,11.38
2022-10-17T00:53:03.115Z,11.43
2022-10-17T00:55:35.858Z,11.43
2022-10-17T00:58:05.234Z,11.68
2022-10-17T01:00:32.572Z,11.13
2022-10-17T01:02:59.993Z,10.70
2022-10-17T01:05:27.409Z,11.25
2022-10-17T01:07:55.666Z,11.80
2022-10-17T01:10:30.130Z,11.95
2022-10-17T01:13:26.425Z,11.57
2022-10-17T01:16:40.028Z,12.00
2022-10-17T01:19:39.229Z,12.05
2022-10-17T01:22:36.073Z,11.38
2022-10-17T01:25:37.366Z,12.13
2022-10-17T01:28:35.298Z,11.65
2022-10-17T01:31:15.859Z,11.27
2022-10-17T01:34:04.034Z,13.32
2022-10-17T01:36:52.315Z,13.00
2022-10-17T01:39:45.324Z,12.20
2022-10-17T01:42:31.069Z,12.13
2022-10-17T01:45:23.209Z,11.90
2022-10-17T01:47:53.137Z,12.32
2022-10-17T01:50:38.229Z,12.20
2022-10-17T01:53:47.037Z,13.07
2022-10-17T01:56:15.818Z,12.25
2022-10-17T01:58:51.061Z,11.05
2022-10-17T02:01:19.998Z,11.73
2022-10-17T02:03:49.964Z,12.30
2022-10-17T02:06:16.986Z,11.70
2022-10-17T02:08:49.334Z,11.43
2022-10-17T02:11:25.443Z,12.00
2022-10-17T02:14:41.519Z,12.52
2022-10-17T02:17:14.914Z,12.20
2022-10-17T02:20:32.088Z,12.38
2022-10-17T02:23:11.221Z,11.32
2022-10-17T02:26:10.191Z,11.98
2022-10-17T02:28:51.530Z,11.77
2022-10-17T02:31:25.871Z,12.18
2022-10-17T02:34:02.032Z,12.43
2022-10-17T02:36:36.752Z,11.60
2022-10-17T02:39:05.311Z,11.95
2022-10-17T02:41:34.169Z,11.63
2022-10-17T02:44:04.310Z,11.55
2022-10-17T02:46:32.949Z,12.30
2022-10-17T02:49:08.787Z,11.35
2022-10-17T02:52:04.301Z,12.00
2022-10-17T02:54:37.175Z,11.77
2022-10-17T02:57:36.076Z,11.27
2022-10-17T03:00:07.979Z,11.68
2022-10-17T03:02:52.816Z,12.68
2022-10-17T03:05:26.067Z,12.30
2022-10-17T03:07:54.217Z,12.50
2022-10-17T03:10:22.214Z,11.80
2022-10-17T03:12:49.549Z,12.77
2022-10-17T03:15:16.611Z,12.65
2022-10-17T03:17:46.869Z,12.38
2022-10-17T03:20:13.994Z,12.23
2022-10-17T03:22:40.890Z,12.43
2022-10-17T03:25:08.217Z,13.23
2022-10-17T03:27:36.305Z,11.80
2022-10-17T03:30:04.042Z,12.45
2022-10-17T03:32:34.569Z,12.13
2022-10-17T03:35:01.911Z,11.98
2022-10-17T03:37:29.127Z,12.15
2022-10-17T03:39:56.289Z,12.10
2022-10-17T03:42:23.247Z,12.48
2022-10-17T03:44:50.182Z,12.27
2022-10-17T03:47:17.740Z,12.55
2022-10-17T03:49:45.834Z,12.55
2022-10-17T03:52:13.528Z,12.75
2022-10-17T03:54:40.631Z,12.68
2022-10-17T03:57:07.686Z,11.57
2022-10-17T03:59:35.959Z,12.30
2022-10-17T04:02:07.696Z,12.23
2022-10-17T04:04:35.681Z,13.38
2022-10-17T04:07:03.510Z,12.55
2022-10-17T04:09:30.758Z,11.90
2022-10-17T04:12:06.964Z,12.88
2022-10-17T04:14:37.878Z,12.70
2022-10-17T04:17:04.945Z,13.13
2022-10-17T04:19:33.477Z,12.50
2022-10-17T04:22:00.363Z,11.95
2022-10-17T04:24:29.157Z,12.10
2022-10-17T04:27:03.896Z,12.80
2022-10-17T04:29:33.572Z,13.57
2022-10-17T04:32:15.630Z,13.68
2022-10-17T04:34:57.733Z,12.88
2022-10-17T04:37:24.746Z,13.13
2022-10-17T04:39:54.140Z,13.27
2022-10-17T04:42:21.089Z,13.02
2022-10-17T04:44:49.857Z,13.85
2022-10-17T04:47:18.250Z,13.35
2022-10-17T04:49:45.163Z,14.63
2022-10-17T04:52:14.236Z,14.50
2022-10-17T04:54:43.761Z,13.75
2022-10-17T04:57:13.599Z,14.57
2022-10-17T04:59:42.709Z,14.10
2022-10-17T05:02:27.256Z,13.63
2022-10-17T05:04:55.215Z,13.77
2022-10-17T05:07:22.433Z,14.20
2022-10-17T05:10:02.212Z,14.23
2022-10-17T05:12:30.457Z,13.60
2022-10-17T05:14:57.587Z,13.50
2022-10-17T05:17:26.335Z,12.85
2022-10-17T05:19:54.645Z,12.65
2022-10-17T05:22:22.608Z,13.02
2022-10-17T05:24:49.574Z,13.70
2022-10-17T05:27:16.558Z,14.75
2022-10-17T05:29:43.693Z,14.20
2022-10-17T05:32:18.170Z,13.43
2022-10-17T05:34:45.540Z,12.73
2022-10-17T05:37:12.427Z,14.13
2022-10-17T05:39:41.822Z,13.57
2022-10-17T05:42:10.473Z,14.07
2022-10-17T05:44:39.289Z,14.40
2022-10-17T05:47:08.943Z,14.45
2022-10-17T05:49:52.466Z,13.70
2022-10-17T05:52:25.957Z,13.98
2022-10-17T05:55:13.555Z,14.32
2022-10-17T05:57:40.636Z,14.07
2022-10-17T06:00:13.295Z,15.40
2022-10-17T06:02:46.090Z,14.93
2022-10-17T06:05:15.715Z,15.20
2022-10-17T06:07:43.750Z,15.27
2022-10-17T06:10:12.972Z,16.27
2022-10-17T06:12:40.028Z,17.48
2022-10-17T06:15:07.843Z,17.38
2022-10-17T06:17:35.712Z,17.15
2022-10-17T06:20:02.630Z,16.30
2022-10-17T06:22:29.822Z,16.45
2022-10-17T06:24:57.444Z,16.40
2022-10-17T06:27:24.472Z,19.33
2022-10-17T06:29:51.377Z,19.60
2022-10-17T06:32:18.538Z,19.25
2022-10-17T06:34:46.969Z,19.20
2022-10-17T06:37:14.999Z,18.08
2022-10-17T06:39:42.814Z,17.65
2022-10-17T06:42:16.133Z,17.60
2022-10-17T06:45:15.172Z,17.40
2022-10-17T06:47:46.849Z,17.20
2022-10-17T06:50:35.420Z,18.90
2022-10-17T06:53:15.439Z,17.95
2022-10-17T06:55:53.995Z,17.52
2022-10-17T06:58:40.458Z,17.67
2022-10-17T07:01:31.745Z,17.27
2022-10-17T07:04:00.401Z,17.77
2022-10-17T07:06:28.745Z,17.42
2022-10-17T07:08:58.942Z,17.02
2022-10-17T07:11:25.946Z,16.52
2022-10-17T07:13:53.132Z,16.65
2022-10-17T07:16:21.640Z,16.75
2022-10-17T07:18:55.533Z,17.45
2022-10-17T07:21:22.625Z,16.13
2022-10-17T07:23:49.736Z,16.80
2022-10-17T07:26:18.613Z,17.65
2022-10-17T07:28:52.629Z,16.77
2022-10-17T07:31:27.573Z,17.08
2022-10-17T07:33:54.748Z,17.33
2022-10-17T07:36:21.639Z,17.40
2022-10-17T07:38:49.320Z,17.50
2022-10-17T07:41:21.662Z,17.45
2022-10-17T07:43:49.799Z,16.95
2022-10-17T07:46:20.622Z,16.75
2022-10-17T07:48:47.743Z,16.10
2022-10-17T07:51:15.483Z,17.38
2022-10-17T07:53:46.373Z,17.23
2022-10-17T07:56:15.840Z,16.05
2022-10-17T07:58:42.794Z,15.18
2022-10-17T08:01:15.533Z,16.23
2022-10-17T08:03:45.157Z,15.35
2022-10-17T08:06:12.884Z,16.23
2022-10-17T08:08:39.788Z,14.95
2022-10-17T08:11:09.943Z,14.93
2022-10-17T08:13:37.943Z,16.30
2022-10-17T08:16:09.351Z,14.15
2022-10-17T08:18:37.149Z,15.07
2022-10-17T08:21:08.371Z,13.98
2022-10-17T08:23:36.554Z,14.23
2022-10-17T08:26:06.598Z,14.80
2022-10-17T08:28:36.120Z,13.80
2022-10-17T08:31:09.418Z,14.25
2022-10-17T08:33:36.595Z,14.23
2022-10-17T08:36:05.483Z,14.07
2022-10-17T08:38:35.688Z,14.52
2022-10-17T08:41:17.981Z,14.07
2022-10-17T08:44:03.177Z,13.85
2022-10-17T08:46:34.702Z,14.07
2022-10-17T08:49:06.486Z,13.85
2022-10-17T08:51:41.313Z,13.73
2022-10-17T08:54:20.660Z,13.98
2022-10-17T08:56:51.460Z,13.63
2022-10-17T08:59:27.985Z,14.10
2022-10-17T09:02:16.244Z,13.55
2022-10-17T09:05:24.031Z,12.75
2022-10-17T09:08:22.552Z,12.65
2022-10-17T09:11:35.993Z,13.07
2022-10-17T09:14:43.301Z,13.73
2022-10-17T09:17:41.508Z,13.23
2022-10-17T09:20:26.591Z,12.82
2022-10-17T09:23:02.757Z,12.23
2022-10-17T09:25:42.791Z,12.80
2022-10-17T09:28:36.531Z,12.50
2022-10-17T09:31:22.241Z,12.35
2022-10-17T09:33:54.834Z,12.43
2022-10-17T09:36:24.873Z,13.00
2022-10-17T09:38:57.984Z,12.93
2022-10-17T09:41:56.799Z,11.60
2022-10-17T09:44:37.386Z,12.68
2022-10-17T09:47:14.266Z,12.27
2022-10-17T09:49:45.043Z,12.25
2022-10-17T09:52:36.291Z,12.18
2022-10-17T09:55:16.045Z,12.23
2022-10-17T09:58:12.339Z,11.63
2022-10-17T10:00:45.527Z,12.00
2022-10-17T10:03:24.753Z,11.77
2022-10-17T10:06:16.367Z,11.45
2022-10-17T10:09:03.366Z,11.18
2022-10-17T10:12:07.038Z,11.15
2022-10-17T10:14:39.662Z,12.57
2022-10-17T10:17:27.425Z,11.45
2022-10-17T10:19:54.824Z,12.10
2022-10-17T10:22:25.708Z,11.52
2022-10-17T10:25:15.466Z,12.15
2022-10-17T10:27:44.994Z,11.77
2022-10-17T10:30:22.898Z,11.35
2022-10-17T10:32:50.390Z,11.75
2022-10-17T10:35:28.361Z,11.57
2022-10-17T10:37:57.950Z,11.57
2022-10-17T10:40:39.335Z,11.25
2022-10-17T10:43:06.760Z,10.98
2022-10-17T10:45:47.627Z,11.55
2022-10-17T10:48:36.700Z,10.85
2022-10-17T10:51:12.882Z,12.18
2022-10-17T10:53:59.073Z,11.65
2022-10-17T10:56:37.354Z,11.18
2022-10-17T10:59:33.281Z,11.48
2022-10-17T11:02:20.378Z,11.45
2022-10-17T11:05:03.581Z,11.95
2022-10-17T11:07:36.834Z,11.55
2022-10-17T11:10:23.529Z,10.40
2022-10-17T11:13:08.619Z,11.88
2022-10-17T11:15:48.443Z,10.75
2022-10-17T11:18:30.597Z,11.70
2022-10-17T11:21:10.888Z,11.73
2022-10-17T11:23:44.655Z,11.35
2022-10-17T11:26:26.103Z,11.45
2022-10-17T11:29:13.828Z,11.18
2022-10-17T11:31:50.716Z,11.18
2022-10-17T11:34:29.682Z,11.80
2022-10-17T11:37:35.523Z,10.35
2022-10-17T11:40:14.678Z,11.27
2022-10-17T11:43:15.450Z,11.65
2022-10-17T11:45:50.152Z,11.82
2022-10-17T11:48:30.959Z,11.65
2022-10-17T11:54:15.099Z,11.15
2022-10-17T11:57:13.974Z,11.38
2022-10-17T11:59:58.010Z,11.30
2022-10-17T12:02:42.737Z,11.57
2022-10-17T12:05:41.159Z,11.63
2022-10-17T12:08:37.851Z,11.98
2022-10-17T12:11:28.283Z,11.63
2022-10-17T12:13:56.743Z,12.52
2022-10-17T12:16:23.663Z,11.93
2022-10-17T12:19:02.587Z,12.10
2022-10-17T12:21:58.080Z,11.85
2022-10-17T12:24:36.998Z,11.43
2022-10-17T12:27:33.557Z,11.23
2022-10-17T12:30:05.703Z,11.38
2022-10-17T12:32:46.930Z,11.90
2022-10-17T12:35:23.538Z,11.60
2022-10-17T12:37:57.356Z,11.55
2022-10-17T12:40:35.336Z,11.88
2022-10-17T12:43:15.037Z,12.07
2022-10-17T12:45:47.991Z,11.07
2022-10-17T12:49:00.859Z,11.38
2022-10-17T12:51:37.920Z,11.35
2022-10-17T12:54:16.374Z,10.88
2022-10-17T12:56:47.263Z,11.48
2022-10-17T12:59:29.159Z,11.05
2022-10-17T13:02:17.440Z,11.75
2022-10-17T13:04:44.375Z,10.63
2022-10-17T13:07:21.408Z,10.85
2022-10-17T13:09:49.830Z,12.27
2022-10-17T13:12:24.607Z,11.93
2022-10-17T13:14:54.267Z,12.43
2022-10-17T13:17:30.775Z,11.77
2022-10-17T13:19:58.441Z,11.38
2022-10-17T13:22:29.355Z,11.43
2022-10-17T13:25:26.801Z,11.07
2022-10-17T13:28:12.710Z,11.35
2022-10-17T13:30:39.744Z,11.48
2022-10-17T13:33:32.431Z,11.77
2022-10-17T13:36:01.412Z,11.55
2022-10-17T13:38:32.552Z,12.40
2022-10-17T13:41:22.940Z,11.88
2022-10-17T13:43:49.658Z,11.25
2022-10-17T13:46:38.883Z,11.25
2022-10-17T13:49:24.519Z,11.23
2022-10-17T13:51:55.958Z,10.80
2022-10-17T13:54:41.946Z,12.05
2022-10-17T13:57:35.309Z,12.77
2022-10-17T14:00:15.716Z,13.02
2022-10-17T14:02:43.038Z,12.23
2022-10-17T14:05:19.446Z,12.15
2022-10-17T14:08:19.005Z,12.15
2022-10-17T14:10:45.519Z,11.50
2022-10-17T14:13:28.761Z,11.50
2022-10-17T14:15:59.659Z,10.73
2022-10-17T14:18:36.470Z,10.75
2022-10-17T14:24:13.669Z,12.65
2022-10-17T14:26:59.431Z,12.43
2022-10-17T14:29:29.521Z,11.57
2022-10-17T14:32:16.231Z,12.05
2022-10-17T14:34:43.185Z,11.43
2022-10-17T14:37:44.994Z,11.10
2022-10-17T14:40:23.468Z,11.25
2022-10-17T14:42:52.378Z,11.30
2022-10-17T14:45:32.562Z,11.35
2022-10-17T14:48:15.389Z,11.25
2022-10-17T14:51:08.549Z,11.88
2022-10-17T14:53:36.133Z,12.57
2022-10-17T14:56:33.582Z,12.32
2022-10-17T14:59:02.679Z,11.52
2022-10-17T15:01:29.635Z,12.25
2022-10-17T15:06:21.441Z,11.20
2022-10-17T15:08:48.343Z,12.18
2022-10-17T15:11:15.264Z,11.55
2022-10-17T15:13:45.553Z,12.45
2022-10-17T15:16:22.750Z,11.65
2022-10-17T15:18:50.255Z,11.52
2022-10-17T15:21:33.633Z,11.77
2022-10-17T15:24:04.823Z,12.60
2022-10-17T15:26:33.808Z,13.00
2022-10-17T15:29:01.265Z,12.25
2022-10-17T15:31:31.291Z,13.25
2022-10-17T15:33:58.143Z,12.75
2022-10-17T15:36:37.077Z,12.25
2022-10-17T15:39:04.059Z,12.52
2022-10-17T15:41:32.406Z,11.93
2022-10-17T15:43:59.702Z,12.38
2022-10-17T15:46:33.506Z,12.77
2022-10-17T15:49:11.261Z,12.35
2022-10-17T15:51:38.816Z,12.85
2022-10-17T15:54:06.351Z,12.82
2022-10-17T15:56:37.460Z,13.48
2022-10-17T15:59:10.416Z,11.98
2022-10-17T16:01:38.705Z,12.60
2022-10-17T16:04:05.667Z,13.32
2022-10-17T16:06:32.540Z,12.65
2022-10-17T16:09:00.499Z,12.48
2022-10-17T16:11:35.340Z,12.70
2022-10-17T16:14:21.265Z,12.95
2022-10-17T16:16:48.070Z,14.07
2022-10-17T16:19:16.246Z,13.38
2022-10-17T16:21:43.151Z,13.82
2022-10-17T16:24:12.103Z,13.15
2022-10-17T16:26:40.083Z,13.70
2022-10-17T16:29:06.954Z,13.27
2022-10-17T16:31:36.495Z,14.00
2022-10-17T16:34:06.393Z,14.48
2022-10-17T16:36:33.776Z,15.70
2022-10-17T16:39:00.685Z,16.70
2022-10-17T16:41:39.011Z,16.20
2022-10-17T16:44:08.979Z,15.82
2022-10-17T16:46:37.663Z,16.95
2022-10-17T16:49:07.825Z,17.65
2022-10-17T16:51:35.891Z,21.75
2022-10-17T16:54:04.540Z,24.23
2022-10-17T16:56:32.820Z,27.35
2022-10-17T16:59:00.908Z,33.25
2022-10-17T17:01:31.531Z,37.28
2022-10-17T17:03:59.066Z,38.53
2022-10-17T17:06:29.113Z,39.08
2022-10-17T17:08:57.290Z,41.80
2022-10-17T17:11:27.233Z,40.53
2022-10-17T17:13:59.200Z,37.03
2022-10-17T17:16:28.605Z,33.63
2022-10-17T17:18:58.869Z,30.63
2022-10-17T17:21:27.779Z,26.13
2022-10-17T17:23:58.245Z,25.27
2022-10-17T17:26:27.472Z,21.65
2022-10-17T17:28:54.812Z,20.55
2022-10-17T17:31:25.215Z,19.38
2022-10-17T17:33:53.011Z,18.48
2022-10-17T17:36:24.611Z,18.98
2022-10-17T17:38:56.608Z,19.58
2022-10-17T17:41:24.407Z,22.67
2022-10-17T17:43:51.843Z,20.70
2022-10-17T17:46:21.085Z,21.63
2022-10-17T17:48:49.353Z,18.92
2022-10-17T17:51:19.879Z,20.20
2022-10-17T17:53:47.317Z,20.98
2022-10-17T17:56:20.570Z,19.63
2022-10-17T17:58:53.975Z,20.40
2022-10-17T18:01:23.620Z,19.50
2022-10-17T18:03:53.211Z,20.67
2022-10-17T18:06:22.106Z,21.48
2022-10-17T18:08:58.567Z,20.88
2022-10-17T18:11:28.785Z,21.05
2022-10-17T18:14:03.922Z,20.75
2022-10-17T18:16:32.598Z,20.48
2022-10-17T18:19:05.760Z,21.05
2022-10-17T18:21:34.042Z,20.13
2022-10-17T18:24:00.930Z,19.50
2022-10-17T18:26:28.559Z,18.20
2022-10-17T18:28:55.638Z,19.60
2022-10-17T18:31:26.326Z,19.77
2022-10-17T18:33:54.562Z,19.50
2022-10-17T18:36:22.633Z,18.45
2022-10-17T18:38:49.901Z,20.10
2022-10-17T18:41:23.697Z,19.33
2022-10-17T18:43:52.380Z,20.73
2022-10-17T18:46:24.458Z,19.50
2022-10-17T18:48:51.783Z,21.25
2022-10-17T18:51:22.869Z,23.65
2022-10-17T18:53:54.213Z,24.80
2022-10-17T18:56:22.276Z,24.73
2022-10-17T18:58:49.184Z,24.52
2022-10-17T19:01:24.243Z,25.50
2022-10-17T19:03:54.711Z,26.40
2022-10-17T19:06:27.303Z,25.40
2022-10-17T19:08:54.366Z,23.65
2022-10-17T19:11:28.015Z,25.35
2022-10-17T19:13:57.620Z,25.15
2022-10-17T19:16:28.643Z,26.00
2022-10-17T19:19:00.523Z,26.25
2022-10-17T19:21:27.884Z,26.20
2022-10-17T19:24:04.703Z,24.13
2022-10-17T19:26:35.246Z,21.50
2022-10-17T19:29:02.262Z,23.60
2022-10-17T19:31:31.724Z,21.15
2022-10-17T19:33:59.325Z,22.40
2022-10-17T19:36:32.516Z,21.77
2022-10-17T19:39:08.487Z,19.52
2022-10-17T19:41:36.390Z,18.02
2022-10-17T19:44:03.343Z,16.83
2022-10-17T19:46:31.818Z,16.77
2022-10-17T19:48:58.748Z,15.82
2022-10-17T19:51:26.634Z,16.30
2022-10-17T19:53:56.099Z,16.52
2022-10-17T19:56:24.888Z,15.75
2022-10-17T19:58:54.064Z,16.08
2022-10-17T20:01:24.213Z,15.65
2022-10-17T20:03:51.396Z,16.00
2022-10-17T20:06:19.055Z,15.05
2022-10-17T20:08:45.895Z,15.32
2022-10-17T20:11:16.699Z,15.27
2022-10-17T20:13:44.804Z,15.32
2022-10-17T20:16:15.511Z,14.82
2022-10-17T20:18:43.136Z,15.40
2022-10-17T20:21:14.399Z,15.32
2022-10-17T20:23:42.287Z,15.75
2022-10-17T20:26:40.078Z,15.25
2022-10-17T20:29:03.717Z,15.20
2022-10-17T20:31:31.100Z,14.48
2022-10-17T20:33:59.468Z,15.07
2022-10-17T20:36:26.812Z,16.58
2022-10-17T20:38:56.396Z,16.77
2022-10-17T20:41:24.897Z,16.58
2022-10-17T20:43:53.213Z,16.25
2022-10-17T20:46:35.959Z,15.45
2022-10-17T20:49:08.223Z,15.68
2022-10-17T20:51:35.963Z,15.93
2022-10-17T20:54:03.656Z,15.80
2022-10-17T20:56:32.757Z,15.38
2022-10-17T20:59:10.475Z,15.40
2022-10-17T21:01:37.348Z,15.90
2022-10-17T21:06:53.348Z,15.65
2022-10-17T21:09:20.907Z,15.13
2022-10-17T21:11:51.097Z,15.48
2022-10-17T21:14:18.437Z,14.73
2022-10-17T21:16:45.466Z,15.02
2022-10-17T21:19:13.035Z,15.75
2022-10-17T21:21:43.390Z,15.02
2022-10-17T21:24:14.225Z,14.93
2022-10-17T21:26:43.310Z,15.23
2022-10-17T21:29:12.087Z,15.13
2022-10-17T21:31:42.461Z,15.00
2022-10-17T21:34:17.682Z,14.35
2022-10-17T21:36:45.259Z,14.63
2022-10-17T21:39:13.543Z,14.65
2022-10-17T21:41:41.175Z,15.68
2022-10-17T21:44:20.368Z,14.68
2022-10-17T21:46:48.173Z,14.95
2022-10-17T21:49:21.124Z,15.05
2022-10-17T21:51:49.318Z,15.63
2022-10-17T21:54:17.785Z,14.23
2022-10-17T21:56:44.907Z,14.75
2022-10-17T21:59:11.926Z,14.80
2022-10-17T22:01:42.712Z,14.82
2022-10-17T22:04:16.575Z,15.93
2022-10-17T22:06:46.140Z,15.93
2022-10-17T22:09:24.141Z,14.88
2022-10-17T22:11:54.918Z,15.50
2022-10-17T22:14:24.132Z,14.65
2022-10-17T22:16:51.340Z,14.55
2022-10-17T22:19:23.698Z,14.95
2022-10-17T22:21:51.255Z,14.57
2022-10-17T22:26:48.499Z,15.48
2022-10-17T22:29:15.858Z,15.15
2022-10-17T22:31:42.936Z,15.55
2022-10-17T22:34:13.375Z,14.23
2022-10-17T22:36:40.880Z,15.02
2022-10-17T22:39:08.033Z,13.52
2022-10-17T22:41:35.041Z,14.68
2022-10-17T22:44:02.214Z,15.07
2022-10-17T22:46:29.352Z,14.65
2022-10-17T22:48:56.254Z,15.32
2022-10-17T22:53:51.201Z,16.25
2022-10-17T22:56:20.712Z,15.13
2022-10-17T22:58:47.863Z,15.07
2022-10-17T23:01:22.845Z,16.00
2022-10-17T23:03:51.187Z,14.85
2022-10-17T23:06:18.710Z,15.75
2022-10-17T23:08:45.596Z,14.98
2022-10-17T23:11:12.907Z,14.32
2022-10-17T23:13:40.855Z,16.02
2022-10-17T23:16:08.595Z,15.45
2022-10-17T23:18:36.875Z,15.07
2022-10-17T23:21:03.995Z,15.20
2022-10-17T23:23:30.886Z,14.63
2022-10-17T23:26:10.800Z,15.27
2022-10-17T23:28:38.427Z,14.65
2022-10-17T23:31:20.360Z,14.65
2022-10-17T23:33:49.095Z,14.18
2022-10-17T23:36:19.367Z,15.23
2022-10-17T23:38:47.416Z,13.35
2022-10-17T23:41:14.695Z,12.13
2022-10-17T23:43:41.609Z,13.40
2022-10-17T23:46:08.856Z,11.52
2022-10-17T23:48:35.860Z,12.55
2022-10-17T23:51:03.275Z,11.68
2022-10-17T23:53:30.943Z,12.05
2022-10-17T23:55:57.778Z,11.48
2022-10-17T23:58:24.642Z,11.95
